Time;durP1;ratioP1;P1;durP2;ratioP2;P2;SDS_P1;SDS_P2;PMS_P1;PMS_P2;Temp;Humidity;BMP_temperature;BMP_pressure;BME280_temperature;BME280_humidity;BME280_pressure;Samples;Min_cycle;Max_cycle;Signal;HPM_P1;HPM_P2
2023/04/18 00:01:46;;;;;;;2.43;2.30;;;20.50;67.30;;;;;;5073002;28;20863;-90
2023/04/18 00:04:13;;;;;;;2.87;2.07;;;20.50;67.30;;;;;;5073729;28;20444;-89
2023/04/18 00:06:39;;;;;;;2.30;2.17;;;20.50;67.40;;;;;;5073753;28;20531;-90
2023/04/18 00:09:06;;;;;;;2.20;2.10;;;20.40;67.20;;;;;;5073421;28;20446;-91
2023/04/18 00:11:38;;;;;;;2.63;2.23;;;20.40;67.20;;;;;;5074978;28;20444;-90
2023/04/18 00:14:07;;;;;;;2.40;2.20;;;20.40;68.10;;;;;;5081427;28;20444;-90
2023/04/18 00:16:35;;;;;;;2.13;2.00;;;20.40;67.20;;;;;;5073884;28;20790;-90
2023/04/18 00:19:03;;;;;;;2.50;2.30;;;20.40;67.10;;;;;;5073729;28;20453;-90
2023/04/18 00:21:31;;;;;;;2.70;2.50;;;20.50;67.20;;;;;;5073588;28;20495;-90
2023/04/18 00:23:58;;;;;;;2.47;2.27;;;20.40;67.20;;;;;;5073847;28;20448;-90
2023/04/18 00:26:26;;;;;;;2.20;2.10;;;20.40;67.10;;;;;;5073936;28;20534;-90
2023/04/18 00:28:53;;;;;;;2.47;2.27;;;20.40;67.00;;;;;;5073552;28;20535;-90
2023/04/18 00:31:21;;;;;;;2.40;2.20;;;20.40;68.00;;;;;;5073623;28;20891;-89
2023/04/18 00:33:47;;;;;;;3.57;2.43;;;20.50;67.20;;;;;;5073459;28;20452;-90
2023/04/18 00:36:14;;;;;;;2.57;2.37;;;20.40;67.10;;;;;;5073184;28;20480;-90
2023/04/18 00:38:41;;;;;;;2.17;2.07;;;20.40;67.20;;;;;;5074128;28;20823;-90
2023/04/18 00:41:08;;;;;;;2.17;1.97;;;20.40;67.20;;;;;;5073637;28;20455;-91
2023/04/18 00:43:36;;;;;;;2.23;2.03;;;20.40;67.10;;;;;;5073914;28;20522;-90
2023/04/18 00:46:02;;;;;;;2.50;2.30;;;20.40;67.00;;;;;;5086114;28;20453;-90
2023/04/18 00:48:31;;;;;;;3.20;2.40;;;20.40;67.10;;;;;;5095716;28;20476;-91
2023/04/18 00:50:59;;;;;;;2.20;2.00;;;20.40;67.00;;;;;;5073705;28;20462;-90
2023/04/18 00:53:26;;;;;;;3.50;2.27;;;20.40;67.00;;;;;;5074126;28;20929;-90
2023/04/18 00:55:53;;;;;;;2.80;2.60;;;20.40;67.10;;;;;;5073130;28;20448;-90
2023/04/18 00:58:20;;;;;;;2.57;2.37;;;20.40;67.00;;;;;;5073542;28;20499;-91
2023/04/18 01:00:48;;;;;;;2.20;2.00;;;20.40;67.10;;;;;;5073612;28;20470;-91
2023/04/18 01:03:17;;;;;;;2.80;2.40;;;20.40;67.00;;;;;;5072977;28;20436;-89
2023/04/18 01:05:45;;;;;;;2.57;2.30;;;20.30;66.90;;;;;;5072893;28;20444;-90
2023/04/18 01:08:12;;;;;;;2.30;2.20;;;20.40;67.00;;;;;;5073358;28;20444;-90
2023/04/18 01:10:39;;;;;;;3.13;2.83;;;20.30;66.90;;;;;;5072911;28;20487;-90
2023/04/18 01:13:13;;;;;;;2.20;2.10;;;20.30;66.90;;;;;;5074695;28;20448;-90
2023/04/18 01:15:41;;;;;;;2.20;2.00;;;20.30;67.00;;;;;;5076762;28;20919;-90
2023/04/18 01:18:08;;;;;;;2.40;2.20;;;20.30;66.90;;;;;;5076577;28;20538;-90
2023/04/18 01:20:37;;;;;;;2.67;2.47;;;20.30;66.90;;;;;;5076427;28;20457;-91
2023/04/18 01:23:05;;;;;;;2.60;2.40;;;20.30;66.90;;;;;;5076751;28;20842;-90
2023/04/18 01:25:33;;;;;;;2.23;2.03;;;20.30;67.00;;;;;;5077592;28;20934;-91
2023/04/18 01:28:01;;;;;;;2.47;2.27;;;20.30;67.00;;;;;;5076693;28;20450;-90
2023/04/18 01:30:28;;;;;;;2.40;2.20;;;20.30;67.00;;;;;;5076693;28;20449;-90
2023/04/18 01:32:55;;;;;;;2.60;2.40;;;20.30;66.90;;;;;;5076738;28;20446;-90
2023/04/18 01:35:22;;;;;;;2.40;2.20;;;20.30;66.90;;;;;;5076132;28;20559;-90
2023/04/18 01:37:48;;;;;;;2.43;2.23;;;20.30;67.00;;;;;;5076320;28;20567;-91
2023/04/18 01:40:15;;;;;;;2.33;2.13;;;20.30;67.00;;;;;;5076297;28;20440;-90
2023/04/18 01:42:43;;;;;;;2.30;2.20;;;20.30;67.00;;;;;;5076437;28;20542;-90
2023/04/18 01:45:12;;;;;;;2.20;2.00;;;20.30;67.00;;;;;;5076330;28;20539;-90
2023/04/18 01:47:38;;;;;;;2.37;2.17;;;20.30;67.00;;;;;;5076451;28;20448;-90
2023/04/18 01:50:06;;;;;;;2.10;1.90;;;20.30;67.00;;;;;;5076401;28;20450;-90
2023/04/18 01:52:33;;;;;;;2.27;2.07;;;20.30;66.90;;;;;;5075913;28;20470;-90
2023/04/18 01:55:01;;;;;;;2.10;2.00;;;20.30;67.00;;;;;;5076243;28;20523;-90
2023/04/18 01:57:28;;;;;;;2.10;1.90;;;20.20;66.80;;;;;;5076053;28;20464;-90
2023/04/18 01:59:56;;;;;;;1.93;1.83;;;20.20;66.80;;;;;;5075927;28;20451;-90
2023/04/18 02:02:23;;;;;;;2.73;2.53;;;20.20;66.80;;;;;;5076413;28;20444;-90
2023/04/18 02:04:50;;;;;;;2.00;1.90;;;20.20;66.90;;;;;;5076070;28;20448;-90
2023/04/18 02:07:17;;;;;;;1.90;1.80;;;20.20;66.70;;;;;;5075720;28;20536;-90
2023/04/18 02:09:44;;;;;;;4.70;2.20;;;20.20;66.80;;;;;;5075540;28;20936;-90
2023/04/18 02:12:11;;;;;;;2.17;1.97;;;20.20;66.80;;;;;;5075605;28;20440;-90
2023/04/18 02:14:38;;;;;;;2.10;2.00;;;20.20;66.80;;;;;;5075837;28;20447;-90
2023/04/18 02:17:06;;;;;;;2.00;1.90;;;20.30;66.90;;;;;;5075835;28;20790;-90
2023/04/18 02:19:33;;;;;;;2.10;2.00;;;20.20;66.80;;;;;;5076092;28;20452;-90
2023/04/18 02:22:00;;;;;;;2.13;1.93;;;20.20;66.70;;;;;;5075292;28;20662;-90
2023/04/18 02:24:27;;;;;;;2.13;1.93;;;20.20;66.80;;;;;;5075284;28;20448;-91
2023/04/18 02:26:53;;;;;;;2.33;2.23;;;20.20;66.70;;;;;;5075304;28;20805;-90
2023/04/18 02:29:20;;;;;;;2.00;1.87;;;20.20;66.80;;;;;;5075433;28;20800;-90
2023/04/18 02:31:47;;;;;;;2.30;2.20;;;20.20;66.70;;;;;;5075493;28;20440;-90
2023/04/18 02:34:15;;;;;;;2.30;2.10;;;20.20;66.80;;;;;;5075561;28;20815;-91
2023/04/18 02:36:43;;;;;;;2.03;1.93;;;20.20;66.80;;;;;;5075182;28;20499;-90
2023/04/18 02:39:10;;;;;;;1.70;1.60;;;20.20;66.80;;;;;;5075257;28;20486;-90
2023/04/18 02:41:38;;;;;;;1.90;1.80;;;20.20;66.70;;;;;;5075306;28;20531;-90
2023/04/18 02:44:05;;;;;;;1.80;1.70;;;20.20;66.70;;;;;;5074996;28;20452;-90
2023/04/18 02:46:32;;;;;;;1.80;1.70;;;20.20;66.80;;;;;;5075356;28;21028;-90
2023/04/18 02:48:59;;;;;;;1.80;1.70;;;20.20;66.80;;;;;;5074875;28;20444;-89
2023/04/18 02:51:27;;;;;;;2.40;2.30;;;20.20;66.80;;;;;;5074733;28;20496;-90
2023/04/18 02:53:55;;;;;;;2.80;2.20;;;20.20;66.90;;;;;;5075175;28;20798;-90
2023/04/18 02:56:22;;;;;;;1.90;1.80;;;20.10;66.70;;;;;;5056985;28;20969;-90
2023/04/18 02:58:51;;;;;;;1.50;1.40;;;20.10;66.70;;;;;;5074889;28;20499;-90
2023/04/18 03:01:18;;;;;;;2.30;2.10;;;20.10;66.70;;;;;;5074536;28;20523;-90
2023/04/18 03:03:45;;;;;;;1.90;1.80;;;20.10;66.70;;;;;;5074736;28;20446;-90
2023/04/18 03:06:12;;;;;;;1.97;1.87;;;20.10;66.80;;;;;;5075061;28;20535;-90
2023/04/18 03:08:40;;;;;;;1.97;1.87;;;20.10;66.80;;;;;;5074747;28;20456;-90
2023/04/18 03:11:07;;;;;;;2.00;1.90;;;20.10;66.80;;;;;;5074603;28;20446;-90
2023/04/18 03:13:35;;;;;;;1.97;1.87;;;20.10;66.80;;;;;;5074272;28;20443;-90
2023/04/18 03:16:02;;;;;;;2.20;2.10;;;20.20;66.90;;;;;;5074393;28;20791;-90
2023/04/18 03:18:29;;;;;;;1.97;1.87;;;20.10;66.70;;;;;;5074327;28;20486;-90
2023/04/18 03:20:55;;;;;;;2.20;2.10;;;20.10;66.80;;;;;;5073972;28;20477;-90
2023/04/18 03:23:22;;;;;;;1.70;1.60;;;20.10;66.80;;;;;;5074221;28;20439;-90
2023/04/18 03:25:50;;;;;;;2.03;1.93;;;20.10;66.80;;;;;;5074080;28;20464;-90
2023/04/18 03:28:17;;;;;;;1.70;1.60;;;20.20;66.90;;;;;;5074228;28;20443;-90
2023/04/18 03:30:44;;;;;;;2.37;1.57;;;20.10;66.80;;;;;;5074115;28;20447;-90
2023/04/18 03:33:12;;;;;;;2.40;1.90;;;20.20;66.90;;;;;;5074121;28;20535;-90
2023/04/18 03:35:39;;;;;;;1.50;1.37;;;20.10;66.80;;;;;;5073695;28;20478;-90
2023/04/18 03:38:05;;;;;;;1.80;1.70;;;20.10;66.80;;;;;;5073737;28;20468;-90
2023/04/18 03:40:32;;;;;;;1.73;1.63;;;20.10;66.90;;;;;;5073767;28;20446;-90
2023/04/18 03:43:00;;;;;;;1.93;1.83;;;20.10;66.90;;;;;;5071559;28;20538;-89
2023/04/18 03:45:27;;;;;;;1.70;1.60;;;20.10;66.90;;;;;;5052749;28;20459;-89
2023/04/18 03:47:54;;;;;;;2.50;2.30;;;20.10;66.90;;;;;;5053035;28;20449;-90
2023/04/18 03:50:23;;;;;;;1.97;1.80;;;20.10;66.90;;;;;;5052323;28;20971;-89
2023/04/18 03:52:51;;;;;;;2.03;1.63;;;20.10;66.90;;;;;;5052218;28;20473;-90
2023/04/18 03:55:18;;;;;;;2.33;1.73;;;20.10;67.70;;;;;;5052479;28;20851;-90
2023/04/18 03:57:45;;;;;;;1.70;1.60;;;20.10;66.80;;;;;;5051942;28;20445;-90
2023/04/18 04:00:14;;;;;;;1.60;1.50;;;20.10;66.90;;;;;;5049361;28;20484;-90
2023/04/18 04:02:41;;;;;;;1.73;1.63;;;20.10;66.80;;;;;;5050136;28;20923;-89
2023/04/18 04:05:08;;;;;;;2.10;2.00;;;20.10;66.80;;;;;;5053227;28;20492;-89
2023/04/18 04:07:36;;;;;;;1.70;1.60;;;20.10;66.80;;;;;;5053125;28;20491;-89
2023/04/18 04:10:02;;;;;;;1.90;1.80;;;20.10;66.80;;;;;;5052838;28;20433;-90
2023/04/18 04:12:30;;;;;;;1.70;1.57;;;20.10;66.90;;;;;;5052912;28;20450;-90
2023/04/18 04:14:56;;;;;;;1.90;1.80;;;20.00;66.80;;;;;;5051730;28;20563;-90
2023/04/18 04:17:24;;;;;;;1.93;1.83;;;20.00;66.80;;;;;;5043965;28;20932;-91
2023/04/18 04:19:51;;;;;;;2.30;2.10;;;20.00;66.90;;;;;;5051660;28;20489;-90
2023/04/18 04:22:18;;;;;;;1.60;1.50;;;20.10;66.90;;;;;;5051923;28;20497;-90
2023/04/18 04:28:07;;;;;;;1.53;1.43;;;20.10;66.90;;;;;;5050999;28;20424;-90
2023/04/18 04:30:34;;;;;;;1.67;1.57;;;20.00;66.90;;;;;;5053318;28;20532;-91
2023/04/18 04:33:03;;;;;;;1.73;1.63;;;20.00;66.90;;;;;;5053542;28;20453;-90
2023/04/18 04:35:30;;;;;;;2.00;1.53;;;20.00;66.90;;;;;;5053086;28;20484;-90
2023/04/18 04:37:57;;;;;;;2.10;2.00;;;20.10;66.90;;;;;;5053010;28;20529;-91
2023/04/18 04:40:24;;;;;;;1.80;1.70;;;20.10;66.90;;;;;;5053008;28;20476;-90
2023/04/18 04:42:53;;;;;;;1.90;1.70;;;20.00;66.70;;;;;;5053481;28;20449;-91
2023/04/18 04:45:19;;;;;;;2.23;2.03;;;20.10;66.50;;;;;;5052948;28;20538;-91
2023/04/18 04:47:47;;;;;;;2.30;2.10;;;20.10;67.00;;;;;;5053508;28;20451;-90
2023/04/18 04:50:16;;;;;;;1.80;1.70;;;20.10;67.00;;;;;;5057161;28;20825;-89
2023/04/18 04:52:42;;;;;;;2.33;2.13;;;20.10;67.20;;;;;;5057217;28;20447;-90
2023/04/18 04:55:09;;;;;;;1.90;1.70;;;20.20;67.40;;;;;;5057012;28;20551;-90
2023/04/18 04:57:37;;;;;;;1.80;1.67;;;20.10;67.40;;;;;;5057175;28;20791;-90
2023/04/18 05:00:06;;;;;;;2.53;2.10;;;20.10;67.60;;;;;;5057017;28;20496;-90
2023/04/18 05:02:32;;;;;;;2.03;1.87;;;20.00;67.50;;;;;;5056478;28;20460;-90
2023/04/18 05:04:59;;;;;;;2.43;1.73;;;20.00;67.70;;;;;;5056746;28;20517;-90
2023/04/18 05:07:28;;;;;;;2.47;2.30;;;20.10;67.80;;;;;;5056684;28;20867;-90
2023/04/18 05:09:55;;;;;;;3.43;1.87;;;20.20;68.30;;;;;;5057343;28;20448;-90
2023/04/18 05:12:21;;;;;;;3.53;2.27;;;20.10;67.80;;;;;;5056900;28;20445;-90
2023/04/18 05:14:48;;;;;;;1.83;1.67;;;20.20;69.00;;;;;;5056603;28;20441;-90
2023/04/18 05:17:15;;;;;;;1.80;1.70;;;20.20;69.00;;;;;;5056454;28;20447;-90
2023/04/18 05:19:42;;;;;;;2.10;1.90;;;20.10;68.10;;;;;;5056439;28;20487;-90
2023/04/18 05:22:09;;;;;;;3.30;2.10;;;20.10;68.10;;;;;;5056860;28;20476;-90
2023/04/18 05:24:38;;;;;;;2.57;2.37;;;20.20;68.20;;;;;;5056622;28;20445;-91
2023/04/18 05:27:05;;;;;;;2.77;2.57;;;20.20;68.30;;;;;;5056310;28;20453;-90
2023/04/18 05:29:32;;;;;;;5.90;2.70;;;20.10;68.20;;;;;;5056841;28;20448;-90
2023/04/18 05:31:59;;;;;;;6.20;2.30;;;20.10;68.20;;;;;;5056343;28;20447;-91
2023/04/18 05:34:26;;;;;;;2.63;2.43;;;20.10;68.20;;;;;;5055266;28;20927;-89
2023/04/18 05:36:53;;;;;;;2.27;2.17;;;20.10;67.60;;;;;;5055354;28;20476;-91
2023/04/18 05:39:20;;;;;;;2.27;2.07;;;20.10;67.90;;;;;;5055959;28;20998;-90
2023/04/18 05:41:48;;;;;;;4.90;2.17;;;20.10;68.30;;;;;;5055968;28;20804;-91
2023/04/18 05:44:16;;;;;;;3.40;2.20;;;20.10;68.30;;;;;;5055954;28;20460;-90
2023/04/18 05:46:43;;;;;;;6.60;2.40;;;20.10;68.40;;;;;;5056097;28;20441;-90
2023/04/18 05:49:10;;;;;;;2.30;2.10;;;20.20;68.10;;;;;;5056186;28;20444;-90
2023/04/18 05:51:37;;;;;;;2.43;2.03;;;20.10;68.20;;;;;;5056054;28;20467;-90
2023/04/18 05:54:04;;;;;;;4.47;2.37;;;20.10;68.40;;;;;;5055873;28;20448;-91
2023/04/18 05:56:31;;;;;;;2.93;2.60;;;20.10;68.50;;;;;;5055852;28;20946;-91
2023/04/18 05:58:59;;;;;;;2.33;2.13;;;20.20;68.50;;;;;;5055651;28;20481;-91
2023/04/18 06:01:51;;;;;;;2.53;2.10;;;20.10;68.50;;;;;;5055742;28;20502;-92
2023/04/18 06:04:19;;;;;;;5.30;2.33;;;20.10;68.30;;;;;;5045055;28;20445;-95
2023/04/18 06:06:54;;;;;;;2.20;2.00;;;20.10;68.40;;;;;;5038995;28;20898;-95
2023/04/18 06:09:21;;;;;;;4.23;2.87;;;20.10;68.50;;;;;;5039540;28;20419;-96
2023/04/18 06:11:48;;;;;;;3.77;2.10;;;20.10;68.50;;;;;;5042410;28;20987;-94
2023/04/18 06:14:36;;;;;;;2.20;1.90;;;20.20;68.60;;;;;;5043841;28;20434;-94
2023/04/18 06:17:40;;;;;;;3.10;1.97;;;20.10;68.60;;;;;;5043048;28;20423;-96
2023/04/18 06:23:28;;;;;;;2.60;2.40;;;20.10;68.40;;;;;;5041074;28;20406;-95
2023/04/18 06:25:57;;;;;;;3.20;2.40;;;20.00;68.30;;;;;;5042509;28;20445;-94
2023/04/18 06:28:24;;;;;;;4.60;2.30;;;20.10;68.50;;;;;;5039436;28;20541;-96
2023/04/18 06:30:52;;;;;;;3.00;2.63;;;20.10;68.50;;;;;;5038807;28;20481;-94
2023/04/18 06:33:19;;;;;;;4.17;2.30;;;20.10;68.50;;;;;;5040428;28;20781;-96
2023/04/18 06:36:02;;;;;;;4.13;2.70;;;20.10;68.40;;;;;;5043762;28;20988;-94
2023/04/18 06:38:32;;;;;;;3.10;2.33;;;20.10;68.40;;;;;;5038825;28;20532;-95
2023/04/18 06:44:18;;;;;;;2.83;2.53;;;20.10;68.50;;;;;;5040802;28;20414;-96
2023/04/18 07:02:40;;;;;;;2.80;2.10;;;20.00;68.50;;;;;;4977183;28;20432;-93
2023/04/18 07:05:07;;;;;;;2.63;2.40;;;20.00;68.30;;;;;;5020301;28;20810;-93
2023/04/18 07:07:35;;;;;;;2.10;1.90;;;20.10;68.40;;;;;;5056657;28;20452;-93
2023/04/18 07:13:24;;;;;;;3.47;2.87;;;20.10;68.30;;;;;;5055567;28;20426;-94
2023/04/18 07:15:52;;;;;;;2.87;2.20;;;20.10;68.40;;;;;;5059007;28;20506;-95
2023/04/18 07:18:19;;;;;;;2.17;2.03;;;20.10;68.40;;;;;;5061647;28;20445;-96
2023/04/18 07:24:33;;;;;;;3.10;2.63;;;20.10;68.30;;;;;;5059712;28;20454;-93
2023/04/18 07:27:20;;;;;;;2.47;2.27;;;20.00;68.30;;;;;;5057451;28;20468;-93
2023/04/18 07:29:47;;;;;;;4.53;2.70;;;20.00;68.20;;;;;;5055881;28;20441;-90
2023/04/18 07:35:39;;;;;;;2.90;2.70;;;20.10;68.20;;;;;;5054788;28;20443;-93
2023/04/18 07:38:15;;;;;;;2.20;2.00;;;20.00;68.20;;;;;;5057397;28;20473;-93
2023/04/18 07:47:41;;;;;;;2.97;2.37;;;20.10;68.30;;;;;;5032527;28;20479;-95
2023/04/18 07:50:09;;;;;;;2.97;2.60;;;20.00;68.10;;;;;;5035632;28;20505;-94
2023/04/18 07:52:40;;;;;;;3.07;2.20;;;19.90;68.00;;;;;;5034613;28;20554;-92
2023/04/18 07:55:08;;;;;;;2.47;2.20;;;20.00;68.10;;;;;;5035286;28;20476;-93
2023/04/18 07:57:36;;;;;;;2.77;1.87;;;20.00;68.10;;;;;;5035770;28;20535;-92
2023/04/18 08:00:05;;;;;;;3.40;2.70;;;20.10;68.20;;;;;;5034175;28;20916;-93
2023/04/18 08:02:32;;;;;;;3.67;2.60;;;20.10;68.10;;;;;;5034299;28;20885;-94
2023/04/18 08:05:02;;;;;;;3.47;1.90;;;20.10;68.00;;;;;;5042612;28;20446;-96
2023/04/18 08:07:28;;;;;;;2.63;2.43;;;20.10;68.00;;;;;;5035711;28;20473;-93
2023/04/18 08:09:57;;;;;;;3.73;2.40;;;20.10;68.00;;;;;;5034572;28;20468;-93
2023/04/18 08:15:47;;;;;;;5.80;1.93;;;20.10;68.00;;;;;;5038648;28;20497;-91
2023/04/18 08:18:14;;;;;;;2.60;2.40;;;20.10;68.00;;;;;;5036851;28;20443;-95
2023/04/18 08:20:41;;;;;;;2.30;2.10;;;20.10;68.00;;;;;;5034190;28;20483;-92
2023/04/18 08:23:08;;;;;;;2.20;2.00;;;20.10;67.90;;;;;;5034222;28;20484;-93
2023/04/18 08:25:36;;;;;;;2.40;2.20;;;20.10;68.00;;;;;;5035144;28;20457;-92
2023/04/18 08:28:03;;;;;;;3.00;2.40;;;20.10;67.90;;;;;;5033717;28;20528;-91
2023/04/18 08:30:30;;;;;;;2.23;2.03;;;20.20;68.00;;;;;;5034087;28;20456;-91
2023/04/18 08:32:57;;;;;;;2.13;1.93;;;20.10;67.80;;;;;;5033830;28;20457;-92
2023/04/18 08:35:24;;;;;;;2.30;2.07;;;20.10;67.80;;;;;;5034232;28;20438;-94
2023/04/18 08:37:50;;;;;;;2.60;2.40;;;20.10;67.60;;;;;;5034189;28;20448;-93
2023/04/18 08:40:17;;;;;;;3.10;2.30;;;20.10;67.60;;;;;;5033799;28;20600;-91
2023/04/18 08:42:46;;;;;;;3.00;1.90;;;20.10;67.60;;;;;;5034154;28;20461;-90
2023/04/18 08:45:14;;;;;;;6.40;2.50;;;20.10;67.70;;;;;;5038812;28;20457;-90
2023/04/18 08:47:41;;;;;;;2.40;2.10;;;20.10;67.60;;;;;;5039969;28;20867;-95
2023/04/18 08:50:09;;;;;;;2.77;2.57;;;20.10;67.60;;;;;;5055197;28;20477;-92
2023/04/18 08:52:48;;;;;;;2.80;2.60;;;20.10;67.50;;;;;;5056739;28;20442;-96
2023/04/18 08:55:15;;;;;;;2.37;2.27;;;20.20;67.80;;;;;;5054318;28;20441;-93
2023/04/18 09:03:56;;;;;;;2.10;1.90;;;20.10;67.70;;;;;;5065549;28;20423;-96
2023/04/18 09:06:23;;;;;;;2.57;2.37;;;20.10;67.90;;;;;;5037824;28;20491;-91
2023/04/18 09:11:38;;;;;;;2.60;2.40;;;20.10;67.70;;;;;;5061520;28;20429;-94
2023/04/18 09:14:05;;;;;;;2.00;1.80;;;20.20;67.80;;;;;;5055049;28;20437;-95
2023/04/18 09:16:45;;;;;;;2.73;2.50;;;20.10;67.60;;;;;;5053818;28;20916;-94
2023/04/18 09:19:16;;;;;;;2.17;1.93;;;20.10;67.60;;;;;;5054615;28;20453;-95
2023/04/18 09:21:45;;;;;;;2.17;1.87;;;20.10;67.70;;;;;;5053610;28;20473;-94
2023/04/18 09:24:22;;;;;;;2.53;2.33;;;20.10;67.60;;;;;;5054466;28;20448;-93
2023/04/18 09:26:52;;;;;;;2.60;2.40;;;20.10;67.60;;;;;;5053666;28;20920;-93
2023/04/18 09:29:21;;;;;;;2.63;2.20;;;20.10;67.60;;;;;;5053129;28;20436;-93
2023/04/18 09:31:56;;;;;;;3.10;2.90;;;20.10;67.60;;;;;;5053698;28;20452;-95
2023/04/18 09:34:25;;;;;;;2.50;2.30;;;20.10;67.30;;;;;;5054890;28;20752;-92
2023/04/18 09:37:06;;;;;;;4.20;2.60;;;20.10;67.40;;;;;;5057124;28;20484;-94
2023/04/18 09:39:33;;;;;;;2.33;2.13;;;20.10;67.70;;;;;;5056665;28;20484;-94
2023/04/18 09:42:01;;;;;;;2.63;2.07;;;20.20;67.70;;;;;;5056776;28;20548;-93
2023/04/18 09:44:28;;;;;;;2.40;2.20;;;20.10;67.60;;;;;;5057038;28;20472;-94
2023/04/18 09:46:55;;;;;;;2.20;2.00;;;20.10;67.50;;;;;;5057060;28;20836;-94
2023/04/18 09:49:24;;;;;;;3.77;2.27;;;20.10;67.00;;;;;;5057778;28;20460;-92
2023/04/18 09:51:53;;;;;;;2.60;2.40;;;20.10;66.70;;;;;;5039188;28;20993;-94
2023/04/18 09:54:22;;;;;;;2.40;2.20;;;20.10;66.90;;;;;;5057192;28;20450;-95
2023/04/18 09:56:52;;;;;;;2.23;2.03;;;20.10;66.70;;;;;;5056899;28;20532;-91
2023/04/18 09:59:32;;;;;;;2.47;2.27;;;20.10;66.60;;;;;;5056959;28;20472;-93
2023/04/18 10:02:02;;;;;;;2.50;2.30;;;20.10;66.80;;;;;;5057624;28;20443;-93
2023/04/18 10:04:32;;;;;;;2.57;2.23;;;20.10;67.10;;;;;;5057211;28;20495;-93
2023/04/18 10:07:00;;;;;;;2.37;1.93;;;20.10;67.70;;;;;;5057754;28;20790;-92
2023/04/18 10:09:30;;;;;;;2.83;2.33;;;20.10;66.60;;;;;;5057281;28;20446;-95
2023/04/18 10:11:58;;;;;;;2.27;2.07;;;20.10;66.60;;;;;;5057246;28;20523;-95
2023/04/18 10:14:25;;;;;;;3.07;2.17;;;20.10;66.60;;;;;;5056953;28;20441;-95
2023/04/18 10:16:52;;;;;;;3.20;2.93;;;20.10;66.50;;;;;;5056377;28;20541;-95
2023/04/18 10:19:27;;;;;;;2.07;1.97;;;20.10;66.20;;;;;;5056445;28;20457;-91
2023/04/18 10:21:57;;;;;;;3.13;2.47;;;20.10;66.60;;;;;;5056590;28;20449;-92
2023/04/18 10:24:46;;;;;;;2.20;2.00;;;20.10;66.80;;;;;;5057620;28;20441;-92
2023/04/18 10:27:14;;;;;;;1.90;1.70;;;20.20;67.10;;;;;;5056610;28;20437;-91
2023/04/18 10:29:48;;;;;;;1.87;1.77;;;20.10;67.00;;;;;;5057479;28;20448;-94
2023/04/18 10:32:15;;;;;;;3.20;2.93;;;20.20;67.20;;;;;;5057537;28;20441;-94
2023/04/18 10:34:42;;;;;;;2.50;2.30;;;20.20;67.40;;;;;;5058886;28;20433;-95
2023/04/18 10:37:11;;;;;;;1.80;1.70;;;20.20;67.60;;;;;;5058572;28;20496;-93
2023/04/18 10:39:50;;;;;;;2.17;1.97;;;20.20;67.80;;;;;;5059130;28;20473;-93
2023/04/18 10:42:17;;;;;;;2.20;2.00;;;20.30;68.30;;;;;;5059741;28;20810;-94
2023/04/18 10:44:43;;;;;;;1.80;1.70;;;20.30;68.30;;;;;;5058134;28;20449;-94
2023/04/18 10:47:32;;;;;;;2.03;1.60;;;20.30;68.40;;;;;;5057341;28;20477;-91
2023/04/18 10:50:02;;;;;;;2.47;2.27;;;20.30;68.50;;;;;;5057474;28;20492;-92
2023/04/18 10:52:31;;;;;;;2.13;1.93;;;20.30;68.50;;;;;;5057328;28;20801;-94
2023/04/18 10:55:15;;;;;;;3.13;2.40;;;20.30;68.50;;;;;;5060058;28;20503;-95
2023/04/18 10:57:44;;;;;;;2.10;1.90;;;20.30;68.50;;;;;;5057418;28;20437;-92
2023/04/18 11:00:13;;;;;;;2.40;2.20;;;20.30;68.60;;;;;;5056339;28;20571;-91
2023/04/18 11:02:47;;;;;;;3.10;2.20;;;20.30;68.60;;;;;;5056690;28;20459;-91
2023/04/18 11:05:19;;;;;;;2.50;2.30;;;20.30;68.50;;;;;;5057824;28;20516;-95
2023/04/18 11:07:49;;;;;;;2.17;1.97;;;20.30;68.50;;;;;;5057460;28;20928;-94
2023/04/18 11:10:18;;;;;;;2.40;2.10;;;20.30;68.60;;;;;;5056786;28;20503;-95
2023/04/18 11:12:46;;;;;;;2.83;2.63;;;20.30;68.50;;;;;;5056035;28;20445;-92
2023/04/18 11:15:16;;;;;;;2.03;1.93;;;20.40;68.60;;;;;;5056938;28;20540;-94
2023/04/18 11:17:43;;;;;;;2.70;1.90;;;20.40;68.50;;;;;;5056329;28;20532;-91
2023/04/18 11:20:12;;;;;;;2.47;2.27;;;20.40;68.50;;;;;;5040311;28;20987;-93
2023/04/18 11:22:47;;;;;;;2.33;2.13;;;20.40;68.70;;;;;;5057107;28;20462;-91
2023/04/18 11:25:16;;;;;;;1.97;1.87;;;20.40;68.60;;;;;;5056401;28;20433;-93
2023/04/18 11:27:44;;;;;;;2.93;2.57;;;20.50;68.70;;;;;;5056675;28;20874;-92
2023/04/18 11:30:12;;;;;;;2.17;1.97;;;20.40;68.70;;;;;;5056467;28;20924;-92
2023/04/18 11:32:39;;;;;;;2.70;2.47;;;20.40;68.70;;;;;;5056096;28;20475;-92
2023/04/18 11:35:08;;;;;;;2.63;2.40;;;20.40;68.60;;;;;;5058622;28;20456;-95
2023/04/18 11:37:36;;;;;;;2.80;1.80;;;20.40;68.70;;;;;;5058043;28;20449;-95
2023/04/18 11:40:04;;;;;;;2.07;1.97;;;20.40;68.60;;;;;;5056950;28;20472;-95
2023/04/18 11:42:35;;;;;;;2.33;2.00;;;20.40;68.60;;;;;;5057195;28;20531;-96
2023/04/18 11:45:02;;;;;;;2.43;2.23;;;20.50;68.90;;;;;;5057961;28;20524;-94
2023/04/18 11:47:31;;;;;;;4.43;2.10;;;20.50;68.70;;;;;;5055253;28;20452;-92
2023/04/18 11:49:59;;;;;;;2.30;2.20;;;20.40;68.50;;;;;;5056420;28;20458;-92
2023/04/18 11:52:27;;;;;;;2.43;2.23;;;20.40;68.70;;;;;;5055328;28;20479;-95
2023/04/18 11:54:55;;;;;;;2.53;2.33;;;20.40;68.70;;;;;;5055748;28;20447;-95
2023/04/18 11:57:24;;;;;;;2.13;1.97;;;20.50;68.70;;;;;;5054790;28;20455;-92
2023/04/18 11:59:55;;;;;;;2.30;2.13;;;20.50;68.70;;;;;;5055463;28;20559;-91
2023/04/18 12:02:23;;;;;;;2.53;2.30;;;20.50;68.70;;;;;;5056959;28;20422;-91
2023/04/18 12:04:55;;;;;;;2.53;2.33;;;20.50;68.80;;;;;;5056367;28;20472;-93
2023/04/18 12:07:36;;;;;;;2.13;2.03;;;20.50;68.60;;;;;;5056001;28;20446;-92
2023/04/18 12:10:05;;;;;;;2.40;2.20;;;20.50;68.70;;;;;;5038667;28;20451;-95
2023/04/18 12:12:33;;;;;;;2.80;2.60;;;20.50;68.90;;;;;;5056260;28;20848;-91
2023/04/18 12:15:03;;;;;;;2.57;2.37;;;20.50;68.90;;;;;;5056060;28;20483;-93
2023/04/18 12:17:31;;;;;;;2.00;1.80;;;20.50;68.80;;;;;;5056940;28;20442;-95
2023/04/18 12:20:01;;;;;;;2.20;2.00;;;20.50;68.80;;;;;;5055699;28;20471;-95
2023/04/18 12:22:43;;;;;;;2.80;2.60;;;20.50;68.90;;;;;;5055131;28;20422;-92
2023/04/18 12:25:18;;;;;;;2.17;2.07;;;20.50;68.80;;;;;;5055328;28;20456;-91
2023/04/18 12:27:53;;;;;;;2.50;2.30;;;20.50;68.90;;;;;;5054822;28;20444;-92
2023/04/18 12:30:24;;;;;;;2.40;2.20;;;20.50;68.90;;;;;;5056159;28;20950;-92
2023/04/18 12:32:54;;;;;;;2.27;2.10;;;20.50;68.90;;;;;;5054925;28;20445;-92
2023/04/18 12:35:22;;;;;;;3.60;2.70;;;20.60;69.20;;;;;;5056758;28;20426;-95
2023/04/18 12:37:51;;;;;;;3.20;2.30;;;20.50;68.90;;;;;;5055623;28;21034;-94
2023/04/18 12:40:18;;;;;;;2.40;2.20;;;20.50;68.90;;;;;;5056963;28;20445;-95
2023/04/18 12:42:46;;;;;;;2.80;2.60;;;20.50;68.90;;;;;;5056064;28;20785;-94
2023/04/18 12:45:14;;;;;;;2.60;2.40;;;20.50;68.90;;;;;;5057262;28;20529;-94
2023/04/18 12:50:53;;;;;;;2.63;2.43;;;20.50;69.10;;;;;;5061041;28;20456;-91
2023/04/18 12:53:20;;;;;;;2.37;2.23;;;20.50;69.00;;;;;;5060328;28;20479;-92
2023/04/18 12:55:48;;;;;;;2.50;2.33;;;20.50;69.20;;;;;;5058421;28;20532;-94
2023/04/18 12:58:17;;;;;;;2.37;2.23;;;20.50;69.30;;;;;;5060763;28;20476;-95
2023/04/18 13:00:48;;;;;;;2.67;2.47;;;20.50;69.20;;;;;;5061381;28;20623;-91
2023/04/18 13:03:16;;;;;;;2.47;2.27;;;20.60;69.30;;;;;;5059296;28;20445;-91
2023/04/18 13:05:50;;;;;;;2.60;2.30;;;20.60;69.30;;;;;;5057419;28;20471;-94
2023/04/18 13:08:19;;;;;;;3.00;2.43;;;20.60;69.10;;;;;;5057238;28;20440;-94
2023/04/18 13:10:46;;;;;;;2.83;2.63;;;20.60;69.20;;;;;;5058849;28;20449;-95
2023/04/18 13:13:13;;;;;;;2.70;2.50;;;20.60;70.00;;;;;;5058282;28;20552;-89
2023/04/18 13:15:40;;;;;;;3.20;2.90;;;20.70;69.30;;;;;;5058084;28;20453;-89
2023/04/18 13:18:07;;;;;;;2.37;2.17;;;20.70;69.30;;;;;;5058558;28;20503;-95
2023/04/18 13:20:34;;;;;;;5.83;2.20;;;20.70;69.40;;;;;;5057619;28;20482;-89
2023/04/18 13:23:02;;;;;;;2.40;2.20;;;20.70;69.50;;;;;;5057953;28;20495;-93
2023/04/18 13:25:31;;;;;;;3.33;3.03;;;20.70;69.40;;;;;;5057671;28;20796;-89
2023/04/18 13:27:59;;;;;;;2.40;2.30;;;20.70;69.30;;;;;;5039591;28;20536;-88
2023/04/18 13:30:26;;;;;;;2.10;2.00;;;20.70;69.40;;;;;;5058280;28;20488;-89
2023/04/18 13:32:53;;;;;;;2.97;2.77;;;20.70;69.30;;;;;;5057338;28;20527;-89
2023/04/18 13:35:20;;;;;;;2.80;2.60;;;20.70;69.30;;;;;;5058025;28;20441;-90
2023/04/18 13:37:47;;;;;;;2.60;2.40;;;20.70;69.30;;;;;;5057675;28;20812;-93
2023/04/18 13:40:14;;;;;;;4.37;2.70;;;20.70;70.10;;;;;;5056978;28;21031;-93
2023/04/18 13:42:43;;;;;;;2.93;2.30;;;20.70;69.30;;;;;;5057514;28;20489;-90
2023/04/18 13:45:10;;;;;;;2.87;2.67;;;20.70;69.30;;;;;;5057622;28;20951;-93
2023/04/18 13:47:38;;;;;;;2.17;1.97;;;20.70;69.30;;;;;;5057238;28;20528;-90
2023/04/18 13:50:05;;;;;;;2.83;2.63;;;20.70;69.20;;;;;;5057973;28;20469;-95
2023/04/18 13:52:33;;;;;;;3.60;2.80;;;20.70;69.20;;;;;;5057207;28;20444;-89
2023/04/18 13:54:59;;;;;;;2.83;2.53;;;20.70;69.20;;;;;;5057894;28;20537;-92